Terminal Aerodrome Forecast
Issued by NWS

Home | Current Version | Previous Version | Text Only | Print | Product List | Glossary On
Versions: 1 2 3 4 5 6 7 8 9 10 11 12 13 14 15 16
321
FTUS45 KTFX 201720
TAFHLN
TAF
KHLN 201720Z 2018/2118 VRB06KT P6SM SCT060 SCT200
      TEMPO 2018/2022 BKN060
     FM210300 VRB06KT P6SM SCT100 BKN200=

USA.gov is the U.S. government's official web portal to all federal, state and local government web resources and services.